Time;durP1;ratioP1;P1;durP2;ratioP2;P2;SDS_P1;SDS_P2;PMS_P1;PMS_P2;Temp;Humidity;BMP_temperature;BMP_pressure;BME280_temperature;BME280_humidity;BME280_pressure;Samples;Min_cycle;Max_cycle;Signal;HPM_P1;HPM_P2
2022/11/08 00:01:55;;;;;;;1.80;1.70;;;5.50;99.90;;;;;;5063463;28;20053;-74
2022/11/08 00:04:25;;;;;;;2.30;1.50;;;5.60;99.90;;;;;;5063391;28;20131;-73
2022/11/08 00:15:10;;;;;;;1.70;1.60;;;5.60;99.90;;;;;;5050864;28;20484;-73
2022/11/08 00:17:37;;;;;;;6.75;1.75;;;5.60;99.90;;;;;;5063280;28;20072;-73
2022/11/08 00:20:08;;;;;;;1.98;1.85;;;5.50;99.90;;;;;;5058084;28;20437;-74
2022/11/08 00:22:36;;;;;;;3.20;2.05;;;5.50;99.90;;;;;;5036580;28;20073;-74
2022/11/08 00:25:04;;;;;;;3.53;1.77;;;5.50;99.90;;;;;;5061330;28;20546;-74
2022/11/08 00:27:31;;;;;;;3.50;1.58;;;5.50;99.90;;;;;;5100696;28;20113;-75
2022/11/08 00:29:59;;;;;;;1.92;1.70;;;5.50;99.90;;;;;;5073798;28;20050;-75
2022/11/08 00:32:26;;;;;;;1.85;1.75;;;5.50;99.90;;;;;;5072272;28;20193;-75
2022/11/08 00:34:54;;;;;;;3.05;1.90;;;5.50;99.90;;;;;;5073040;28;20044;-74
2022/11/08 00:37:23;;;;;;;2.92;2.05;;;5.50;99.90;;;;;;5070032;28;20404;-74
2022/11/08 00:39:50;;;;;;;5.43;2.10;;;5.60;99.90;;;;;;5071712;28;20151;-74
2022/11/08 00:42:18;;;;;;;2.63;1.67;;;5.60;99.90;;;;;;5057297;28;20044;-74
2022/11/08 00:44:45;;;;;;;3.80;1.60;;;5.50;99.90;;;;;;5073628;28;20041;-74
2022/11/08 00:47:13;;;;;;;3.45;1.92;;;5.60;99.90;;;;;;5070625;28;20052;-74
2022/11/08 00:49:40;;;;;;;2.90;1.67;;;5.50;99.90;;;;;;5072731;28;20045;-74
2022/11/08 00:52:07;;;;;;;3.75;2.00;;;5.50;99.90;;;;;;5062798;28;20057;-74
2022/11/08 00:54:36;;;;;;;4.03;2.08;;;5.50;99.90;;;;;;5066424;28;20056;-73
2022/11/08 00:57:04;;;;;;;2.17;1.92;;;5.50;99.90;;;;;;5070463;28;20098;-74
2022/11/08 00:59:31;;;;;;;2.78;1.70;;;5.60;99.90;;;;;;5070796;28;20558;-74
2022/11/08 01:01:58;;;;;;;3.47;1.90;;;5.50;99.90;;;;;;5050053;28;20091;-73
2022/11/08 01:04:26;;;;;;;3.03;1.77;;;5.50;99.90;;;;;;5072099;28;20143;-73
2022/11/08 01:06:53;;;;;;;2.75;2.33;;;5.50;99.90;;;;;;5070791;28;20571;-72
2022/11/08 01:09:20;;;;;;;3.65;1.80;;;5.50;99.90;;;;;;5070899;28;20327;-73
2022/11/08 01:11:49;;;;;;;4.22;2.10;;;5.50;99.90;;;;;;5054472;28;20519;-74
2022/11/08 01:14:16;;;;;;;4.90;1.92;;;5.50;99.90;;;;;;5071865;28;20372;-73
2022/11/08 01:16:44;;;;;;;5.03;2.00;;;5.50;99.90;;;;;;5069912;28;20077;-74
2022/11/08 01:19:11;;;;;;;2.40;1.85;;;5.50;99.90;;;;;;5059106;28;20053;-74
2022/11/08 01:21:38;;;;;;;2.58;2.10;;;5.50;99.90;;;;;;5071273;28;20127;-73
2022/11/08 01:24:07;;;;;;;5.03;2.47;;;5.60;99.90;;;;;;5070518;28;20051;-74
2022/11/08 01:26:34;;;;;;;4.65;2.42;;;5.60;99.90;;;;;;5071787;28;20536;-74
2022/11/08 01:29:03;;;;;;;3.72;3.00;;;5.50;99.90;;;;;;5055110;28;20046;-74
2022/11/08 01:31:32;;;;;;;4.80;2.65;;;5.50;99.90;;;;;;5072849;28;20055;-74
2022/11/08 01:34:00;;;;;;;3.17;2.67;;;5.50;99.90;;;;;;5070356;28;20096;-74
2022/11/08 01:36:29;;;;;;;4.65;2.80;;;5.50;99.90;;;;;;5084059;28;20110;-75
2022/11/08 01:38:57;;;;;;;4.30;2.50;;;5.50;99.90;;;;;;5070303;28;20112;-74
2022/11/08 01:41:26;;;;;;;3.00;2.30;;;5.50;99.90;;;;;;5071733;28;20106;-74
2022/11/08 01:43:55;;;;;;;3.65;2.83;;;5.50;99.90;;;;;;5070742;28;20512;-74
2022/11/08 01:46:40;;;;;;;4.43;2.95;;;5.50;99.90;;;;;;5071749;28;20041;-73
2022/11/08 01:49:33;;;;;;;3.53;3.03;;;5.40;99.90;;;;;;5087834;28;20381;-73
2022/11/08 01:52:18;;;;;;;3.40;3.00;;;5.40;99.90;;;;;;5080440;28;20140;-73
2022/11/08 01:54:53;;;;;;;3.70;3.20;;;5.40;99.90;;;;;;5068230;28;20068;-73
2022/11/08 01:57:26;;;;;;;3.83;3.15;;;5.30;99.90;;;;;;5071026;28;20412;-73
2022/11/08 01:59:57;;;;;;;4.10;3.13;;;5.30;99.90;;;;;;5071915;28;20416;-73
2022/11/08 02:02:27;;;;;;;3.55;2.63;;;5.20;99.90;;;;;;5073563;28;20052;-73
2022/11/08 02:04:55;;;;;;;8.20;3.13;;;5.20;99.90;;;;;;5072386;28;20044;-73
2022/11/08 02:07:23;;;;;;;4.03;3.30;;;5.20;99.90;;;;;;5058648;28;20051;-74
2022/11/08 02:09:50;;;;;;;5.30;3.50;;;5.20;99.90;;;;;;5058434;28;20044;-74
2022/11/08 02:12:21;;;;;;;5.28;3.47;;;5.20;99.90;;;;;;5065588;28;20059;-75
2022/11/08 02:14:48;;;;;;;5.50;2.88;;;5.10;99.90;;;;;;5070675;28;20079;-73
2022/11/08 02:17:16;;;;;;;3.83;3.42;;;5.10;99.90;;;;;;5069936;28;20040;-73
2022/11/08 02:19:48;;;;;;;3.33;2.97;;;5.10;99.90;;;;;;5073612;28;20588;-73
2022/11/08 02:22:29;;;;;;;3.58;3.20;;;5.10;99.90;;;;;;5072929;28;20102;-73
2022/11/08 02:24:59;;;;;;;4.30;3.25;;;5.00;99.90;;;;;;5044170;28;20057;-75
2022/11/08 02:27:26;;;;;;;5.43;3.28;;;5.00;99.90;;;;;;5052790;28;20099;-75
2022/11/08 02:29:55;;;;;;;4.20;3.00;;;5.00;99.90;;;;;;5066317;28;20040;-74
2022/11/08 02:32:23;;;;;;;5.43;3.17;;;5.00;99.90;;;;;;5071343;28;20064;-75
2022/11/08 02:34:55;;;;;;;5.28;3.47;;;5.00;99.90;;;;;;5037594;28;20032;-74
2022/11/08 02:37:24;;;;;;;4.20;3.00;;;5.00;99.90;;;;;;5069165;28;20125;-75
2022/11/08 02:39:52;;;;;;;4.80;3.97;;;5.00;99.90;;;;;;5064657;28;20040;-74
2022/11/08 02:42:21;;;;;;;5.53;3.60;;;5.00;99.90;;;;;;5070523;28;20131;-74
2022/11/08 02:44:49;;;;;;;4.78;3.00;;;5.00;99.90;;;;;;5072012;28;20044;-75
2022/11/08 02:47:16;;;;;;;5.35;3.33;;;5.00;99.90;;;;;;5060107;28;20041;-74
2022/11/08 02:49:44;;;;;;;5.38;3.17;;;5.00;99.90;;;;;;5071470;28;20048;-75
2022/11/08 02:52:11;;;;;;;4.32;3.53;;;5.00;99.90;;;;;;5065202;28;20427;-74
2022/11/08 02:54:39;;;;;;;5.65;3.08;;;5.00;99.90;;;;;;5051948;28;20041;-74
2022/11/08 02:57:06;;;;;;;6.65;3.80;;;5.00;99.90;;;;;;5064333;28;20079;-74
2022/11/08 02:59:35;;;;;;;4.00;3.53;;;5.00;99.90;;;;;;5069657;28;20048;-74
2022/11/08 03:02:03;;;;;;;4.75;3.03;;;5.00;99.90;;;;;;5068137;28;20056;-75
2022/11/08 03:04:30;;;;;;;5.13;3.05;;;5.00;99.90;;;;;;5049479;28;20488;-74
2022/11/08 03:06:57;;;;;;;3.40;3.05;;;5.10;99.90;;;;;;5057687;28;20053;-74
2022/11/08 03:09:25;;;;;;;3.30;2.90;;;5.00;99.90;;;;;;5083001;28;20127;-74
2022/11/08 03:11:53;;;;;;;4.03;2.80;;;5.10;99.90;;;;;;5056659;28;20370;-74
2022/11/08 03:14:20;;;;;;;4.43;3.05;;;5.10;99.90;;;;;;5063525;28;20051;-75
2022/11/08 03:16:49;;;;;;;6.10;3.05;;;5.10;99.90;;;;;;5065262;28;20102;-75
2022/11/08 03:19:16;;;;;;;4.68;3.20;;;5.10;99.90;;;;;;5083484;28;20044;-75
2022/11/08 03:21:44;;;;;;;6.07;3.08;;;5.20;99.90;;;;;;5050132;28;20076;-74
2022/11/08 03:24:11;;;;;;;8.32;3.40;;;5.20;99.90;;;;;;5061626;28;20049;-74
2022/11/08 03:26:39;;;;;;;7.03;3.75;;;5.20;99.90;;;;;;5063576;28;20558;-74
2022/11/08 03:29:06;;;;;;;5.05;3.47;;;5.20;99.90;;;;;;5069174;28;20113;-74
2022/11/08 03:31:34;;;;;;;7.07;3.40;;;5.30;99.90;;;;;;5061668;28;20073;-74
2022/11/08 03:34:02;;;;;;;5.32;2.88;;;5.30;99.90;;;;;;5060795;28;20059;-74
2022/11/08 03:36:30;;;;;;;6.40;3.67;;;5.30;99.90;;;;;;5069201;28;20096;-74
2022/11/08 03:38:57;;;;;;;7.05;3.92;;;5.30;99.90;;;;;;5070864;28;20090;-74
2022/11/08 03:41:25;;;;;;;4.68;3.75;;;5.30;99.90;;;;;;5069145;28;20079;-73
2022/11/08 03:43:52;;;;;;;5.45;3.67;;;5.30;99.90;;;;;;5067754;28;20128;-74
2022/11/08 03:46:19;;;;;;;9.35;3.85;;;5.30;99.90;;;;;;5067689;28;20102;-74
2022/11/08 03:48:47;;;;;;;6.07;3.65;;;5.30;99.90;;;;;;5073736;28;20339;-74
2022/11/08 03:51:16;;;;;;;5.72;4.38;;;5.40;99.90;;;;;;5082683;28;20083;-74
2022/11/08 03:53:43;;;;;;;5.75;3.88;;;5.40;99.90;;;;;;5055931;28;20556;-74
2022/11/08 03:56:11;;;;;;;5.78;4.00;;;5.40;99.90;;;;;;5063983;28;20041;-73
2022/11/08 03:58:38;;;;;;;5.85;3.50;;;5.40;99.90;;;;;;5062930;28;20535;-75
2022/11/08 04:01:07;;;;;;;5.07;4.28;;;5.40;99.90;;;;;;5066321;28;20056;-74
2022/11/08 04:03:35;;;;;;;6.10;3.92;;;5.50;99.90;;;;;;5066345;28;20048;-74
2022/11/08 04:06:04;;;;;;;7.65;4.18;;;5.50;99.90;;;;;;5068919;28;20581;-74
2022/11/08 04:08:32;;;;;;;7.53;4.60;;;5.50;99.90;;;;;;5066300;28;20052;-74
2022/11/08 04:15:13;;;;;;;6.97;4.10;;;5.50;99.90;;;;;;5070158;28;20139;-74
2022/11/08 04:16:36;;;;;;;7.50;4.50;;;5.60;99.90;;;;;;5062619;28;20048;-73
2022/11/08 04:21:53;;;;;;;8.73;4.28;;;5.60;99.90;;;;;;5060865;28;20052;-72
2022/11/08 04:24:34;;;;;;;8.43;4.78;;;5.70;99.90;;;;;;5064735;28;20490;-72
2022/11/08 04:27:02;;;;;;;6.65;5.00;;;5.70;99.90;;;;;;5092271;28;20531;-73
2022/11/08 04:29:30;;;;;;;9.75;5.50;;;5.70;99.90;;;;;;5052234;28;20102;-71
2022/11/08 04:31:57;;;;;;;8.38;4.35;;;5.70;99.90;;;;;;5069805;28;20136;-72
2022/11/08 04:34:44;;;;;;;8.95;5.15;;;5.80;99.90;;;;;;5069743;28;20412;-72
2022/11/08 04:37:14;;;;;;;7.15;5.63;;;5.80;99.90;;;;;;5069240;28;20048;-72
2022/11/08 04:39:42;;;;;;;6.45;4.82;;;5.80;99.90;;;;;;5067133;28;20072;-72
2022/11/08 04:42:11;;;;;;;7.82;4.95;;;5.90;99.90;;;;;;5050138;28;20045;-76
2022/11/08 04:44:40;;;;;;;9.57;5.10;;;5.80;99.90;;;;;;5054683;28;20512;-76
2022/11/08 04:47:09;;;;;;;9.82;5.40;;;5.90;99.90;;;;;;5067835;28;20045;-76
2022/11/08 04:49:37;;;;;;;12.82;6.50;;;5.90;99.90;;;;;;5070332;28;20060;-72
2022/11/08 04:52:08;;;;;;;7.55;5.35;;;5.90;99.90;;;;;;5072593;28;20044;-76
2022/11/08 04:54:43;;;;;;;9.43;6.18;;;6.00;99.90;;;;;;5053667;28;20059;-71
2022/11/08 04:57:11;;;;;;;11.13;5.60;;;6.00;99.90;;;;;;5069993;28;20049;-72
2022/11/08 04:59:39;;;;;;;7.65;6.35;;;5.90;99.90;;;;;;5061462;28;20064;-72
2022/11/08 05:02:06;;;;;;;11.00;6.65;;;5.90;99.90;;;;;;5064223;28;20477;-79
2022/11/08 05:04:33;;;;;;;7.75;6.03;;;6.00;99.90;;;;;;5054079;28;20041;-79
2022/11/08 05:07:01;;;;;;;8.70;6.07;;;6.00;99.90;;;;;;5072780;28;20044;-78
2022/11/08 05:09:28;;;;;;;12.95;7.18;;;6.00;99.90;;;;;;5067537;28;20620;-77
2022/11/08 05:11:57;;;;;;;12.10;6.95;;;6.00;99.90;;;;;;5070891;28;20142;-77
2022/11/08 05:14:24;;;;;;;10.35;6.75;;;6.10;99.90;;;;;;5059008;28;20049;-79
2022/11/08 05:16:52;;;;;;;13.27;7.13;;;6.00;99.90;;;;;;5060684;28;20450;-78
2022/11/08 05:23:22;;;;;;;11.82;6.70;;;6.10;99.90;;;;;;5072678;28;20072;-76
2022/11/08 05:24:53;;;;;;;12.07;7.25;;;6.20;99.90;;;;;;5070583;28;20130;-77
2022/11/08 05:27:21;;;;;;;13.93;7.32;;;6.20;99.90;;;;;;5053212;28;20041;-76
2022/11/08 05:29:49;;;;;;;15.85;6.88;;;6.20;99.90;;;;;;5041371;28;20045;-77
2022/11/08 05:32:16;;;;;;;13.52;7.97;;;6.20;99.90;;;;;;5054720;28;20045;-79
2022/11/08 05:34:44;;;;;;;13.05;7.38;;;6.20;99.90;;;;;;5064874;28;20102;-77
2022/11/08 05:37:11;;;;;;;17.05;8.23;;;6.30;99.90;;;;;;5075325;28;20131;-77
2022/11/08 05:39:38;;;;;;;11.25;7.13;;;6.20;99.90;;;;;;5074593;28;20059;-78
2022/11/08 05:42:06;;;;;;;12.32;6.72;;;6.30;99.90;;;;;;5072384;28;20044;-74
2022/11/08 05:44:34;;;;;;;10.38;6.82;;;6.30;99.90;;;;;;5053897;28;20071;-74
2022/11/08 05:47:02;;;;;;;13.20;8.00;;;6.40;99.90;;;;;;5065322;28;20037;-74
2022/11/08 05:49:29;;;;;;;10.63;7.13;;;6.40;99.90;;;;;;5072834;28;20520;-74
2022/11/08 05:51:56;;;;;;;13.45;7.82;;;6.40;99.90;;;;;;5070151;28;20044;-73
2022/11/08 05:54:24;;;;;;;9.80;6.50;;;6.40;99.90;;;;;;5071881;28;20471;-75
2022/11/08 05:56:51;;;;;;;9.73;6.88;;;6.50;99.90;;;;;;5071724;28;20040;-74
2022/11/08 05:59:19;;;;;;;13.63;7.07;;;6.50;99.90;;;;;;5072439;28;20416;-78
2022/11/08 06:01:48;;;;;;;10.15;7.38;;;6.60;99.90;;;;;;5073424;28;20036;-79
2022/11/08 06:04:16;;;;;;;12.07;7.10;;;6.60;99.90;;;;;;5072273;28;20049;-78
2022/11/08 06:06:43;;;;;;;8.50;6.35;;;6.70;99.90;;;;;;5073619;28;20044;-79
2022/11/08 06:09:10;;;;;;;11.57;6.97;;;6.70;99.90;;;;;;5072013;28;20131;-78
2022/11/08 06:11:38;;;;;;;12.77;7.43;;;6.70;99.90;;;;;;5071526;28;20416;-78
2022/11/08 06:14:06;;;;;;;10.23;6.82;;;6.80;99.90;;;;;;5066761;28;20056;-77
2022/11/08 06:16:33;;;;;;;8.73;6.38;;;6.80;99.90;;;;;;5068407;28;20089;-77
2022/11/08 06:19:05;;;;;;;12.98;6.68;;;6.90;99.90;;;;;;5096273;28;20056;-78
2022/11/08 06:21:32;;;;;;;10.18;6.78;;;6.90;99.90;;;;;;5072480;28;20080;-78
2022/11/08 06:24:00;;;;;;;8.00;5.75;;;6.90;99.90;;;;;;5067676;28;20048;-78
2022/11/08 06:26:27;;;;;;;11.65;6.78;;;6.90;99.90;;;;;;5059431;28;20044;-78
2022/11/08 06:28:54;;;;;;;11.02;6.63;;;6.90;99.90;;;;;;5067755;28;20040;-77
2022/11/08 06:31:22;;;;;;;10.57;6.85;;;6.90;99.90;;;;;;5046096;28;20041;-79
2022/11/08 06:33:50;;;;;;;9.43;6.60;;;7.00;99.90;;;;;;5065293;28;20068;-78
2022/11/08 06:36:20;;;;;;;13.10;6.80;;;7.00;99.90;;;;;;5062809;28;20053;-75
2022/11/08 06:38:53;;;;;;;12.70;6.43;;;7.00;99.90;;;;;;5070672;28;20094;-78
2022/11/08 06:41:21;;;;;;;10.90;6.43;;;7.10;99.90;;;;;;5068912;28;20052;-81
2022/11/08 06:43:49;;;;;;;9.40;6.50;;;7.10;99.90;;;;;;5067240;28;20040;-76
2022/11/08 06:46:16;;;;;;;11.82;7.10;;;7.10;99.90;;;;;;5065993;28;20040;-76
2022/11/08 06:48:44;;;;;;;10.52;6.22;;;7.20;99.90;;;;;;5062165;28;20082;-77
2022/11/08 06:51:11;;;;;;;10.85;6.63;;;7.20;99.90;;;;;;5068307;28;20121;-77
2022/11/08 06:53:40;;;;;;;11.32;6.38;;;7.20;99.90;;;;;;5068417;28;20527;-75
2022/11/08 06:56:08;;;;;;;15.55;6.63;;;7.30;99.90;;;;;;5069363;28;20056;-78
2022/11/08 06:58:36;;;;;;;12.55;6.57;;;7.30;99.90;;;;;;5072468;28;20048;-77
2022/11/08 07:01:05;;;;;;;11.15;6.28;;;7.40;99.90;;;;;;5074313;28;20048;-76
2022/11/08 07:03:34;;;;;;;10.55;7.07;;;7.30;99.90;;;;;;5077205;28;20508;-76
2022/11/08 07:06:02;;;;;;;10.07;6.82;;;7.40;99.90;;;;;;5081492;28;20744;-78
2022/11/08 07:08:30;;;;;;;14.48;7.68;;;7.40;99.90;;;;;;5074399;28;20099;-79
2022/11/08 07:10:59;;;;;;;12.43;6.80;;;7.40;99.90;;;;;;5079158;28;20056;-76
2022/11/08 07:13:27;;;;;;;11.68;6.35;;;7.40;99.90;;;;;;5074752;28;20044;-77
2022/11/08 07:15:58;;;;;;;11.05;7.68;;;7.50;99.90;;;;;;5076587;28;20043;-77
2022/11/08 07:18:26;;;;;;;11.82;7.07;;;7.50;99.90;;;;;;5075107;28;20056;-77
2022/11/08 07:20:57;;;;;;;13.77;8.02;;;7.50;99.90;;;;;;5078317;28;20044;-75
2022/11/08 07:23:24;;;;;;;11.82;7.45;;;7.50;99.90;;;;;;5072028;28;20056;-74
2022/11/08 07:25:52;;;;;;;13.90;7.78;;;7.50;99.90;;;;;;5073019;28;20048;-76
2022/11/08 07:28:21;;;;;;;13.48;7.28;;;7.40;99.90;;;;;;5072894;28;20048;-73
2022/11/08 07:30:49;;;;;;;16.42;7.25;;;7.50;99.90;;;;;;5076665;28;20462;-73
2022/11/08 07:33:17;;;;;;;11.02;6.25;;;7.50;99.90;;;;;;5079055;28;20116;-74
2022/11/08 07:35:47;;;;;;;10.65;6.93;;;7.60;99.90;;;;;;5074379;28;20043;-75
2022/11/08 07:38:14;;;;;;;10.85;6.90;;;7.60;99.90;;;;;;5068317;28;20051;-74
2022/11/08 07:40:41;;;;;;;13.40;7.15;;;7.60;99.90;;;;;;5080381;28;20405;-75
2022/11/08 07:43:09;;;;;;;13.68;7.55;;;7.60;99.90;;;;;;5081035;28;20416;-73
2022/11/08 07:45:37;;;;;;;14.82;7.47;;;7.60;99.90;;;;;;5075415;28;20055;-73
2022/11/08 07:48:08;;;;;;;17.48;7.35;;;7.60;99.90;;;;;;5077007;28;20052;-75
2022/11/08 07:50:35;;;;;;;12.90;7.05;;;7.60;99.90;;;;;;5076076;28;20131;-73
2022/11/08 07:53:03;;;;;;;14.00;7.00;;;7.60;99.90;;;;;;5076305;28;20048;-75
2022/11/08 07:55:30;;;;;;;13.80;6.50;;;7.60;99.90;;;;;;5075342;28;20587;-74
2022/11/08 07:58:00;;;;;;;11.60;7.05;;;7.50;99.90;;;;;;5079804;28;20522;-74
2022/11/08 08:00:28;;;;;;;10.65;6.68;;;7.50;99.90;;;;;;5080169;28;20051;-75
2022/11/08 08:03:00;;;;;;;9.60;6.00;;;7.50;99.90;;;;;;5082310;28;20051;-77
2022/11/08 08:05:30;;;;;;;15.98;8.00;;;7.50;99.90;;;;;;5083059;28;20040;-77
2022/11/08 08:07:58;;;;;;;16.15;7.13;;;7.50;99.90;;;;;;5079253;28;20380;-78
2022/11/08 08:10:26;;;;;;;17.90;7.93;;;7.50;99.90;;;;;;5087289;28;20055;-77
2022/11/08 08:12:54;;;;;;;12.43;7.50;;;7.50;99.90;;;;;;5077937;28;20051;-77
2022/11/08 08:15:22;;;;;;;12.02;6.88;;;7.50;99.90;;;;;;5082361;28;20054;-77
2022/11/08 08:17:49;;;;;;;12.90;6.63;;;7.50;99.90;;;;;;5084118;28;20547;-78
2022/11/08 08:20:18;;;;;;;10.77;6.85;;;7.50;99.90;;;;;;5086531;28;20586;-78
2022/11/08 08:22:51;;;;;;;11.68;6.28;;;7.50;99.90;;;;;;5077189;28;20619;-78
2022/11/08 08:25:19;;;;;;;12.55;6.20;;;7.50;99.90;;;;;;5080504;28;20458;-77
2022/11/08 08:27:50;;;;;;;17.55;7.85;;;7.50;99.90;;;;;;5085494;28;20051;-77
2022/11/08 08:30:18;;;;;;;13.43;7.55;;;7.50;99.90;;;;;;5081574;28;20044;-78
2022/11/08 08:32:47;;;;;;;13.25;7.60;;;7.60;99.90;;;;;;5082903;28;20044;-75
2022/11/08 08:35:15;;;;;;;11.55;6.45;;;7.60;99.90;;;;;;5078509;28;20145;-75
2022/11/08 08:37:44;;;;;;;10.63;6.28;;;7.60;99.90;;;;;;5081332;28;20040;-74
2022/11/08 08:40:12;;;;;;;13.27;6.60;;;7.60;99.90;;;;;;5062554;28;20143;-74
2022/11/08 08:42:39;;;;;;;12.88;6.22;;;7.60;99.90;;;;;;5079638;28;20106;-75
2022/11/08 08:45:09;;;;;;;9.25;6.38;;;7.60;99.90;;;;;;5081147;28;20051;-74
2022/11/08 08:47:37;;;;;;;9.75;6.75;;;7.70;99.90;;;;;;5081408;28;20048;-73
2022/11/08 08:50:05;;;;;;;10.40;5.90;;;7.70;99.90;;;;;;5081496;28;20535;-74
2022/11/08 08:52:32;;;;;;;11.63;6.70;;;7.70;99.90;;;;;;5084036;28;20074;-74
2022/11/08 08:55:01;;;;;;;10.50;6.78;;;7.70;99.90;;;;;;5085597;28;20056;-74
2022/11/08 08:57:30;;;;;;;9.35;6.03;;;7.80;99.90;;;;;;5089915;28;20054;-74
2022/11/08 08:59:57;;;;;;;14.00;6.75;;;7.80;99.90;;;;;;5080842;28;20056;-76
2022/11/08 09:02:24;;;;;;;10.00;6.72;;;7.90;99.90;;;;;;5075859;28;20044;-74
2022/11/08 09:04:51;;;;;;;11.07;6.40;;;7.90;99.90;;;;;;5080452;28;20491;-73
2022/11/08 09:07:19;;;;;;;12.55;5.80;;;7.90;99.90;;;;;;5081223;28;20040;-74
2022/11/08 09:09:46;;;;;;;8.80;5.57;;;8.00;99.90;;;;;;5075172;28;20045;-76
2022/11/08 09:12:15;;;;;;;7.85;5.90;;;8.10;99.90;;;;;;5083615;28;20048;-75
2022/11/08 09:14:42;;;;;;;8.43;5.65;;;8.10;99.90;;;;;;5082615;28;20039;-75
2022/11/08 09:17:09;;;;;;;8.82;5.90;;;8.10;99.90;;;;;;5085540;28;20040;-75
2022/11/08 09:19:37;;;;;;;10.85;6.40;;;8.10;99.90;;;;;;5082032;28;20059;-76
2022/11/08 09:22:04;;;;;;;10.95;6.05;;;8.10;99.90;;;;;;5088466;28;20516;-76
2022/11/08 09:24:33;;;;;;;9.88;6.88;;;8.20;99.90;;;;;;5083419;28;20395;-76
2022/11/08 09:27:02;;;;;;;8.25;6.03;;;8.20;99.90;;;;;;5082572;28;20476;-77
2022/11/08 09:29:32;;;;;;;9.90;5.78;;;8.20;99.90;;;;;;5088301;28;20082;-77
2022/11/08 09:32:00;;;;;;;9.30;5.93;;;8.20;99.90;;;;;;5084545;28;20094;-80
2022/11/08 09:34:27;;;;;;;7.78;6.20;;;8.20;99.90;;;;;;5086183;28;20144;-77
2022/11/08 09:36:54;;;;;;;10.48;6.60;;;8.30;99.90;;;;;;5085096;28;20040;-77
2022/11/08 09:39:22;;;;;;;9.73;6.28;;;8.30;99.90;;;;;;5087470;28;20048;-76
2022/11/08 09:42:08;;;;;;;9.38;5.97;;;8.30;99.90;;;;;;5086377;28;20161;-79
2022/11/08 09:45:07;;;;;;;9.38;5.70;;;8.40;99.90;;;;;;5083161;28;20036;-77
2022/11/08 09:47:38;;;;;;;8.65;5.72;;;8.50;99.90;;;;;;5089360;28;20105;-78
2022/11/08 09:50:18;;;;;;;8.98;5.90;;;8.60;99.90;;;;;;5090622;28;20045;-77
2022/11/08 09:52:51;;;;;;;6.13;4.75;;;8.70;99.90;;;;;;5086654;28;20039;-76
2022/11/08 09:55:27;;;;;;;8.30;5.53;;;8.70;99.90;;;;;;5083241;28;20048;-77
2022/11/08 09:58:08;;;;;;;7.97;5.22;;;8.70;99.90;;;;;;5085812;28;20403;-77
2022/11/08 10:00:40;;;;;;;9.30;5.43;;;8.70;99.90;;;;;;5067120;28;20134;-77
2022/11/08 10:03:14;;;;;;;8.88;5.32;;;8.70;99.90;;;;;;5078954;28;20049;-77
2022/11/08 10:05:46;;;;;;;6.95;5.55;;;8.70;99.90;;;;;;5084321;28;20385;-74
2022/11/08 10:08:26;;;;;;;6.97;4.68;;;8.70;99.90;;;;;;5080560;28;20052;-77
2022/11/08 10:11:30;;;;;;;7.60;5.40;;;8.80;99.90;;;;;;5085550;28;20123;-75
2022/11/08 10:14:15;;;;;;;8.50;5.18;;;8.80;99.90;;;;;;5076090;28;20044;-74
2022/11/08 10:16:56;;;;;;;8.65;5.40;;;8.80;99.90;;;;;;5081525;28;20051;-75
2022/11/08 10:19:55;;;;;;;8.82;5.00;;;8.80;99.90;;;;;;5077775;28;20044;-74
2022/11/08 10:22:32;;;;;;;8.45;5.20;;;8.80;99.90;;;;;;5076004;28;20036;-72
2022/11/08 10:25:02;;;;;;;7.55;4.95;;;8.80;99.90;;;;;;5079225;28;20167;-72
2022/11/08 10:27:37;;;;;;;7.72;5.00;;;8.80;99.90;;;;;;5079974;28;20044;-74
2022/11/08 10:30:14;;;;;;;5.95;4.40;;;8.80;99.90;;;;;;5081322;28;20044;-72
2022/11/08 10:32:43;;;;;;;6.45;5.50;;;8.80;99.90;;;;;;5081885;28;20052;-73
2022/11/08 10:35:23;;;;;;;9.48;5.63;;;8.80;99.90;;;;;;5085171;28;20051;-72
2022/11/08 10:37:52;;;;;;;8.55;5.22;;;8.80;99.90;;;;;;5089178;28;20126;-75
2022/11/08 10:40:35;;;;;;;8.82;5.90;;;8.90;99.90;;;;;;5081056;28;20047;-76
2022/11/08 10:43:09;;;;;;;8.23;6.40;;;8.80;99.90;;;;;;5079516;28;20083;-75
2022/11/08 10:45:37;;;;;;;8.45;4.80;;;8.90;99.90;;;;;;5066776;28;20044;-76
2022/11/08 10:48:06;;;;;;;8.90;5.93;;;8.90;99.90;;;;;;5063759;28;20035;-77
2022/11/08 10:50:44;;;;;;;9.95;4.90;;;8.90;99.90;;;;;;5080698;28;20044;-77
2022/11/08 10:53:18;;;;;;;7.28;5.20;;;8.90;99.90;;;;;;5083079;28;20133;-77
2022/11/08 10:55:51;;;;;;;7.88;5.00;;;8.80;99.90;;;;;;5087297;28;20464;-77
2022/11/08 10:58:31;;;;;;;5.72;4.80;;;8.90;99.90;;;;;;5087082;28;20056;-76
2022/11/08 11:01:06;;;;;;;6.88;5.63;;;8.90;99.90;;;;;;5078889;28;20055;-77
2022/11/08 11:03:35;;;;;;;9.50;5.20;;;8.90;99.90;;;;;;5086662;28;20048;-77
2022/11/08 11:06:06;;;;;;;8.75;5.13;;;8.90;99.90;;;;;;5086788;28;20051;-77
2022/11/08 11:08:34;;;;;;;10.68;5.88;;;8.90;99.90;;;;;;5063527;28;20075;-78
2022/11/08 11:11:27;;;;;;;9.77;5.90;;;8.90;99.90;;;;;;5076870;28;20032;-77
2022/11/08 11:14:11;;;;;;;;;;;9.00;99.90;;;;;;5075329;28;20044;-78
2022/11/08 11:16:55;;;;;;;9.48;5.35;;;9.00;99.90;;;;;;5082497;28;19934;-76
2022/11/08 11:19:24;;;;;;;6.63;5.68;;;9.00;99.90;;;;;;5070106;28;20534;-77
2022/11/08 11:21:57;;;;;;;7.22;5.22;;;9.00;99.90;;;;;;5080417;28;20066;-76
2022/11/08 11:24:25;;;;;;;;;;;9.00;99.90;;;;;;5079769;28;20047;-76
2022/11/08 11:27:03;;;;;;;7.63;5.60;;;9.00;99.90;;;;;;5075817;28;20046;-77
2022/11/08 11:29:32;;;;;;;6.95;5.70;;;9.00;99.90;;;;;;5082030;28;20043;-78
2022/11/08 11:32:23;;;;;;;8.57;5.57;;;9.00;99.90;;;;;;5078498;28;20072;-76
2022/11/08 11:34:56;;;;;;;8.77;6.50;;;9.00;99.90;;;;;;5095852;28;20544;-75
2022/11/08 11:37:39;;;;;;;8.00;5.00;;;9.00;99.90;;;;;;5075530;28;20134;-77
2022/11/08 11:40:16;;;;;;;8.30;4.88;;;9.00;99.90;;;;;;5083037;28;20047;-75
2022/11/08 11:42:54;;;;;;;8.80;5.18;;;9.00;99.90;;;;;;5079324;28;20051;-78
2022/11/08 11:45:29;;;;;;;9.63;5.22;;;9.00;99.90;;;;;;5077377;28;20075;-77
2022/11/08 11:47:58;;;;;;;7.30;5.25;;;9.00;99.90;;;;;;5082157;28;20058;-75
2022/11/08 11:50:33;;;;;;;6.07;4.93;;;8.90;99.90;;;;;;5082646;28;20040;-76
2022/11/08 11:53:05;;;;;;;6.68;4.43;;;9.00;99.90;;;;;;5079703;28;20056;-77
2022/11/08 11:55:53;;;;;;;6.07;4.53;;;8.90;99.90;;;;;;5071493;28;20043;-77
2022/11/08 11:59:08;;;;;;;5.55;4.43;;;8.90;99.90;;;;;;5082423;28;20048;-76
2022/11/08 12:02:03;;;;;;;5.55;4.30;;;9.00;99.90;;;;;;5073425;28;20044;-77
2022/11/08 12:04:59;;;;;;;5.15;4.00;;;8.90;99.90;;;;;;5073727;28;20076;-76
2022/11/08 12:07:31;;;;;;;5.05;3.92;;;9.00;99.90;;;;;;5079172;28;20051;-77
2022/11/08 12:10:16;;;;;;;4.78;3.95;;;9.00;99.90;;;;;;5086235;28;20048;-76
2022/11/08 12:12:57;;;;;;;8.52;3.88;;;9.10;99.90;;;;;;5081841;28;20048;-77
2022/11/08 12:15:33;;;;;;;5.45;3.63;;;9.10;99.90;;;;;;5080495;28;20047;-76
2022/11/08 12:18:18;;;;;;;3.80;3.03;;;9.10;99.90;;;;;;5081460;28;20059;-76
2022/11/08 12:20:58;;;;;;;4.63;3.28;;;9.10;99.90;;;;;;5083091;28;20044;-78
2022/11/08 12:23:50;;;;;;;4.53;3.65;;;9.10;99.90;;;;;;5074283;28;20047;-76
2022/11/08 12:26:23;;;;;;;5.00;3.70;;;9.10;99.90;;;;;;5084346;28;20063;-77
2022/11/08 12:29:16;;;;;;;4.25;3.40;;;9.20;99.90;;;;;;5080033;28;20078;-77
2022/11/08 12:31:59;;;;;;;7.43;3.85;;;9.20;99.90;;;;;;5075574;28;20588;-76
2022/11/08 12:34:35;;;;;;;7.13;4.25;;;9.30;99.90;;;;;;5080010;28;20047;-76
2022/11/08 12:37:17;;;;;;;5.85;3.80;;;9.30;99.90;;;;;;5081762;28;20052;-76
2022/11/08 12:39:49;;;;;;;4.95;4.25;;;9.30;99.90;;;;;;5084261;28;20131;-77
2022/11/08 12:42:57;;;;;;;7.13;4.28;;;9.30;99.90;;;;;;5075045;28;20067;-76
2022/11/08 12:45:46;;;;;;;5.45;4.20;;;9.40;99.90;;;;;;5082897;28;20044;-74
2022/11/08 12:48:28;;;;;;;9.88;5.45;;;9.40;99.90;;;;;;5083379;28;20064;-76
2022/11/08 12:51:04;;;;;;;8.57;5.60;;;9.40;99.90;;;;;;5075193;28;20049;-75
2022/11/08 12:53:58;;;;;;;7.65;4.75;;;9.40;99.90;;;;;;5082763;28;20063;-74
2022/11/08 12:56:34;;;;;;;10.82;5.75;;;9.40;99.90;;;;;;5083308;28;20044;-76
2022/11/08 12:59:04;;;;;;;8.70;5.78;;;9.40;99.90;;;;;;5082728;28;20665;-76
2022/11/08 13:01:32;;;;;;;14.15;6.07;;;9.40;99.90;;;;;;5093633;28;20131;-78
2022/11/08 13:04:25;;;;;;;14.00;6.90;;;9.40;99.90;;;;;;5084651;28;20504;-76
2022/11/08 13:07:00;;;;;;;17.92;7.47;;;9.40;99.90;;;;;;5075224;28;20044;-78
2022/11/08 13:09:42;;;;;;;19.33;7.40;;;9.50;99.90;;;;;;5075993;28;20059;-77
2022/11/08 13:12:30;;;;;;;10.90;6.30;;;9.40;99.90;;;;;;5081119;28;20048;-77
2022/11/08 13:15:00;;;;;;;10.52;5.45;;;9.40;99.90;;;;;;5065539;28;20040;-75
2022/11/08 13:17:31;;;;;;;;;;;9.40;99.90;;;;;;5079689;28;20097;-76
2022/11/08 13:20:06;;;;;;;15.43;6.20;;;9.40;99.90;;;;;;5077828;28;20366;-80
2022/11/08 13:22:59;;;;;;;9.10;4.40;;;9.40;99.90;;;;;;5081251;28;20508;-74
2022/11/08 13:25:38;;;;;;;8.40;4.28;;;9.40;99.90;;;;;;5081499;28;20040;-77
2022/11/08 13:28:45;;;;;;;8.13;4.07;;;9.40;99.90;;;;;;5075457;28;20076;-76
2022/11/08 13:31:48;;;;;;;9.60;3.83;;;9.40;99.90;;;;;;5085997;28;20147;-73
2022/11/08 13:34:45;;;;;;;8.80;3.80;;;9.40;99.90;;;;;;5079195;28;20044;-74
2022/11/08 13:37:44;;;;;;;7.97;3.42;;;9.40;99.90;;;;;;5067364;28;20520;-79